createdAt,value
2019-06-07T00:00:40.653Z,28.20
2019-06-07T00:03:22.067Z,28.20
2019-06-07T00:05:44.430Z,28.20
2019-06-07T00:08:22.573Z,28.20
2019-06-07T00:10:48.114Z,28.30
2019-06-07T00:13:20.373Z,28.20
2019-06-07T00:15:51.669Z,28.20
2019-06-07T00:18:25.830Z,28.30
2019-06-07T00:21:14.452Z,28.30
2019-06-07T00:23:45.553Z,28.30
2019-06-07T00:26:18.178Z,28.30
2019-06-07T00:28:48.991Z,28.30
2019-06-07T00:31:24.130Z,28.30
2019-06-07T00:33:52.521Z,28.30
2019-06-07T00:36:25.166Z,28.30
2019-06-07T00:38:56.322Z,28.30
2019-06-07T00:41:27.122Z,28.30
2019-06-07T00:43:58.440Z,28.30
2019-06-07T00:46:29.625Z,28.30
2019-06-07T00:49:00.563Z,28.40
2019-06-07T00:51:49.528Z,28.40
2019-06-07T00:54:04.360Z,28.40
2019-06-07T00:56:35.448Z,28.40
2019-06-07T00:59:11.323Z,28.40
2019-06-07T01:01:40.314Z,28.40
2019-06-07T01:04:12.981Z,28.40
2019-06-07T01:06:46.334Z,28.50
2019-06-07T01:09:17.826Z,28.50
2019-06-07T01:11:50.008Z,28.50
2019-06-07T01:14:22.623Z,28.50
2019-06-07T01:17:01.249Z,28.50
2019-06-07T01:19:27.373Z,28.60
2019-06-07T01:21:59.115Z,28.60
2019-06-07T01:24:30.198Z,28.60
2019-06-07T01:27:01.486Z,28.70
2019-06-07T01:29:32.759Z,28.80
2019-06-07T01:32:03.697Z,28.70
2019-06-07T01:34:34.590Z,28.80
2019-06-07T01:37:06.102Z,28.90
2019-06-07T01:39:37.188Z,28.90
2019-06-07T01:42:08.213Z,29.00
2019-06-07T01:44:39.589Z,29.00
2019-06-07T01:47:10.598Z,29.00
2019-06-07T01:49:41.606Z,29.00
2019-06-07T01:52:12.604Z,29.00
2019-06-07T01:54:56.045Z,29.00
2019-06-07T01:57:30.941Z,29.00
2019-06-07T01:59:48.293Z,29.00
2019-06-07T02:02:20.172Z,29.10
2019-06-07T02:04:51.438Z,29.10
2019-06-07T02:07:25.832Z,29.10
2019-06-07T02:09:54.707Z,29.10
2019-06-07T02:12:35.904Z,29.20
2019-06-07T02:14:58.255Z,29.20
2019-06-07T02:17:30.945Z,29.20
2019-06-07T02:20:01.696Z,29.20
2019-06-07T02:22:32.751Z,29.20
2019-06-07T02:25:35.085Z,29.30
2019-06-07T02:27:36.713Z,29.40
2019-06-07T02:30:36.941Z,29.40
2019-06-07T02:32:43.420Z,29.50
2019-06-07T02:35:14.473Z,29.50
2019-06-07T02:37:46.282Z,29.60
2019-06-07T02:40:18.581Z,29.80
2019-06-07T02:42:49.561Z,29.80
2019-06-07T02:45:20.593Z,29.80
2019-06-07T02:47:51.810Z,29.80
2019-06-07T02:50:23.140Z,29.80
2019-06-07T02:52:54.177Z,29.80
2019-06-07T02:55:28.995Z,29.90
2019-06-07T02:57:58.352Z,29.80
2019-06-07T03:01:08.946Z,29.90
2019-06-07T03:03:22.561Z,29.90
2019-06-07T03:05:54.055Z,29.90
2019-06-07T03:08:25.828Z,29.90
2019-06-07T03:10:57.086Z,29.90
2019-06-07T03:13:28.906Z,30.00
2019-06-07T03:16:02.729Z,30.00
2019-06-07T03:18:51.689Z,30.00
2019-06-07T03:21:25.113Z,30.00
2019-06-07T03:23:58.359Z,30.10
2019-06-07T03:26:31.336Z,30.10
2019-06-07T03:29:03.019Z,30.10
2019-06-07T03:31:41.722Z,30.30
2019-06-07T03:34:06.485Z,30.30
2019-06-07T03:36:40.076Z,30.40
2019-06-07T03:39:10.544Z,30.50
2019-06-07T03:42:02.495Z,30.60
2019-06-07T03:44:14.615Z,30.60
2019-06-07T03:46:45.716Z,30.70
2019-06-07T03:49:16.730Z,30.80
2019-06-07T03:51:47.846Z,30.80
2019-06-07T03:54:18.762Z,30.80
2019-06-07T03:56:50.854Z,30.90
2019-06-07T03:59:21.936Z,30.90
2019-06-07T04:01:52.857Z,31.00
2019-06-07T04:04:24.051Z,31.10
2019-06-07T04:06:55.118Z,31.20
2019-06-07T04:09:26.047Z,31.20
2019-06-07T04:11:57.077Z,31.40
2019-06-07T04:14:42.551Z,31.50
2019-06-07T04:17:13.539Z,31.50
2019-06-07T04:19:44.631Z,31.60
2019-06-07T04:22:15.573Z,31.60
2019-06-07T04:24:46.566Z,31.60
2019-06-07T04:27:17.505Z,31.50
2019-06-07T04:30:06.648Z,31.50
2019-06-07T04:32:21.029Z,31.50
2019-06-07T04:34:51.997Z,31.60
2019-06-07T04:37:24.120Z,31.60
2019-06-07T04:39:56.136Z,31.60
2019-06-07T04:42:30.019Z,31.60
2019-06-07T04:45:02.018Z,31.70
2019-06-07T04:47:33.851Z,31.80
2019-06-07T04:50:06.844Z,31.70
2019-06-07T04:52:42.769Z,31.80
2019-06-07T04:55:10.254Z,31.80
2019-06-07T04:57:43.293Z,31.80
2019-06-07T05:00:46.607Z,31.80
2019-06-07T05:02:46.020Z,31.70
2019-06-07T05:05:17.239Z,31.70
2019-06-07T05:07:48.192Z,31.70
2019-06-07T05:10:19.340Z,31.70
2019-06-07T05:12:50.019Z,31.90
2019-06-07T05:15:20.995Z,31.80
2019-06-07T05:17:52.033Z,31.80
2019-06-07T05:20:24.642Z,31.90
2019-06-07T05:22:56.037Z,31.90
2019-06-07T05:25:27.113Z,31.90
2019-06-07T05:27:58.047Z,32.00
2019-06-07T05:33:11.944Z,31.90
2019-06-07T05:35:43.562Z,32.00
2019-06-07T05:38:14.714Z,32.00
2019-06-07T05:40:48.544Z,32.00
2019-06-07T05:43:27.058Z,32.10
2019-06-07T05:45:58.763Z,32.20
2019-06-07T05:48:30.006Z,32.20
2019-06-07T05:51:01.048Z,32.20
2019-06-07T05:53:32.815Z,32.20
2019-06-07T05:56:04.109Z,32.10
2019-06-07T05:58:35.347Z,32.10
2019-06-07T06:01:41.577Z,32.00
2019-06-07T06:03:40.275Z,32.20
2019-06-07T06:06:11.078Z,32.20
2019-06-07T06:08:44.427Z,32.20
2019-06-07T06:11:14.421Z,32.30
2019-06-07T06:14:05.654Z,32.20
2019-06-07T06:16:17.695Z,32.10
2019-06-07T06:18:49.216Z,32.10
2019-06-07T06:21:20.802Z,32.10
2019-06-07T06:23:53.881Z,32.00
2019-06-07T06:26:24.409Z,32.10
2019-06-07T06:28:56.337Z,32.00
2019-06-07T06:32:40.672Z,32.00
2019-06-07T06:34:33.204Z,32.00
2019-06-07T06:37:04.411Z,32.00
2019-06-07T06:39:35.455Z,32.00
2019-06-07T06:42:06.516Z,32.00
2019-06-07T06:44:40.761Z,32.00
2019-06-07T06:47:10.352Z,32.00
2019-06-07T06:49:42.138Z,32.00
2019-06-07T06:52:13.934Z,31.90
2019-06-07T06:54:53.180Z,31.80
2019-06-07T06:57:20.268Z,31.80
2019-06-07T06:59:52.713Z,31.70
2019-06-07T07:02:23.360Z,31.70
2019-06-07T07:04:54.319Z,31.50
2019-06-07T07:07:27.013Z,31.40
2019-06-07T07:09:59.726Z,31.30
2019-06-07T07:12:31.112Z,31.20
2019-06-07T07:15:02.123Z,31.00
2019-06-07T07:17:50.524Z,30.80
2019-06-07T07:20:06.461Z,30.60
2019-06-07T07:22:37.505Z,30.50
2019-06-07T07:25:11.711Z,30.40
2019-06-07T07:27:44.473Z,30.20
2019-06-07T07:30:35.948Z,30.10
2019-06-07T07:32:50.400Z,30.00
2019-06-07T07:35:21.107Z,30.00
2019-06-07T07:37:58.712Z,29.80
2019-06-07T07:42:56.894Z,29.80
2019-06-07T07:45:29.576Z,29.70
2019-06-07T07:48:14.891Z,29.60
2019-06-07T07:50:33.943Z,29.50
2019-06-07T07:55:59.956Z,29.50
2019-06-07T07:58:27.845Z,29.40
2019-06-07T08:01:09.735Z,29.40
2019-06-07T08:03:32.098Z,29.40
2019-06-07T08:06:03.417Z,29.40
2019-06-07T08:08:34.362Z,29.40
2019-06-07T08:11:05.400Z,29.50
2019-06-07T08:13:37.414Z,29.50
2019-06-07T08:16:15.004Z,29.40
2019-06-07T08:18:40.906Z,29.40
2019-06-07T08:21:24.522Z,29.40
2019-06-07T08:23:44.707Z,29.40
2019-06-07T08:26:15.885Z,29.30
2019-06-07T08:28:48.366Z,29.30
2019-06-07T08:31:19.243Z,29.30
2019-06-07T08:33:50.157Z,29.20
2019-06-07T08:36:40.390Z,29.20
2019-06-07T08:38:57.880Z,29.20
2019-06-07T08:41:26.135Z,29.10
2019-06-07T08:44:00.573Z,29.10
2019-06-07T08:46:30.772Z,29.10
2019-06-07T08:49:04.602Z,29.10
2019-06-07T08:51:34.652Z,29.00
2019-06-07T08:54:21.858Z,29.00
2019-06-07T08:56:38.051Z,29.00
2019-06-07T08:59:11.483Z,29.00
2019-06-07T09:01:41.622Z,29.00
2019-06-07T09:04:12.469Z,28.90
2019-06-07T09:09:15.883Z,28.90
2019-06-07T09:11:47.031Z,28.90
2019-06-07T09:14:18.128Z,28.80
2019-06-07T09:16:49.254Z,28.80
2019-06-07T09:19:20.432Z,28.80
2019-06-07T09:21:51.373Z,28.80
2019-06-07T09:24:22.679Z,28.90
2019-06-07T09:26:53.706Z,28.80
2019-06-07T09:29:25.034Z,28.80
2019-06-07T09:31:59.551Z,28.80
2019-06-07T09:34:28.406Z,28.80
2019-06-07T09:37:10.945Z,28.80
2019-06-07T09:39:31.752Z,28.80
2019-06-07T09:42:08.391Z,28.80
2019-06-07T09:44:35.790Z,28.80
2019-06-07T09:47:29.549Z,28.80
2019-06-07T09:49:39.279Z,28.80
2019-06-07T09:52:11.053Z,28.80
2019-06-07T09:55:06.012Z,28.80
2019-06-07T09:57:17.339Z,28.80
2019-06-07T09:59:47.121Z,28.80
2019-06-07T10:02:18.062Z,28.80
2019-06-07T10:04:48.976Z,28.80
2019-06-07T10:07:31.155Z,28.80
2019-06-07T10:12:24.767Z,28.80
2019-06-07T10:14:55.695Z,28.80
2019-06-07T10:17:26.645Z,28.70
2019-06-07T10:20:00.017Z,28.70
2019-06-07T10:22:30.116Z,28.70
2019-06-07T10:25:02.123Z,28.70
2019-06-07T10:27:33.363Z,28.70
2019-06-07T10:30:04.283Z,28.70
2019-06-07T10:32:35.222Z,28.70
2019-06-07T10:35:08.198Z,28.70
2019-06-07T10:37:39.979Z,28.70
2019-06-07T10:40:11.336Z,28.70
2019-06-07T10:42:42.311Z,28.70
2019-06-07T10:45:14.023Z,28.70
2019-06-07T10:47:45.199Z,28.70
2019-06-07T10:50:16.318Z,28.70
2019-06-07T10:52:47.335Z,28.70
2019-06-07T10:55:19.163Z,28.70
2019-06-07T10:57:50.120Z,28.70
2019-06-07T11:00:21.447Z,28.70
2019-06-07T11:02:55.093Z,28.70
2019-06-07T11:05:24.690Z,28.70
2019-06-07T11:07:55.712Z,28.80
2019-06-07T11:10:26.926Z,28.80
2019-06-07T11:12:57.987Z,28.70
2019-06-07T11:15:29.135Z,28.80
2019-06-07T11:18:00.164Z,28.70
2019-06-07T11:20:31.190Z,28.70
2019-06-07T11:23:02.230Z,28.70
2019-06-07T11:25:33.637Z,28.60
2019-06-07T11:28:04.569Z,28.60
2019-06-07T11:30:35.570Z,28.60
2019-06-07T11:33:06.833Z,28.60
2019-06-07T11:35:37.838Z,28.60
2019-06-07T11:38:08.864Z,28.60
2019-06-07T11:40:39.782Z,28.60
2019-06-07T11:43:10.831Z,28.60
2019-06-07T11:45:41.873Z,28.50
2019-06-07T11:48:13.494Z,28.60
2019-06-07T11:50:44.788Z,28.50
2019-06-07T11:53:15.832Z,28.50
2019-06-07T11:55:46.781Z,28.50
2019-06-07T11:58:21.596Z,28.50
2019-06-07T12:00:50.149Z,28.50
2019-06-07T12:03:21.151Z,28.50
2019-06-07T12:05:52.075Z,28.50
2019-06-07T12:08:23.161Z,28.50
2019-06-07T12:10:54.766Z,28.50
2019-06-07T12:13:28.159Z,28.50
2019-06-07T12:15:59.212Z,28.50
2019-06-07T12:18:30.129Z,28.60
2019-06-07T12:21:01.064Z,28.50
2019-06-07T12:23:32.151Z,28.50
2019-06-07T12:26:05.062Z,28.50
2019-06-07T12:28:38.708Z,28.50
2019-06-07T12:31:10.766Z,28.50
2019-06-07T12:33:41.900Z,28.50
2019-06-07T12:36:13.540Z,28.50
2019-06-07T12:41:36.556Z,28.60
2019-06-07T12:44:07.878Z,28.60
2019-06-07T12:46:38.877Z,28.60
2019-06-07T12:49:09.797Z,28.60
2019-06-07T12:54:41.569Z,28.50
2019-06-07T12:57:13.891Z,28.60
2019-06-07T12:59:46.563Z,28.50
2019-06-07T13:02:19.998Z,28.50
2019-06-07T13:04:49.986Z,28.50
2019-06-07T13:07:22.491Z,28.50
2019-06-07T13:09:53.250Z,28.50
2019-06-07T13:12:24.292Z,28.50
2019-06-07T13:14:55.340Z,28.50
2019-06-07T13:17:26.467Z,28.50
2019-06-07T13:19:57.368Z,28.50
2019-06-07T13:22:28.579Z,28.50
2019-06-07T13:24:59.795Z,28.50
2019-06-07T13:27:33.772Z,28.50
2019-06-07T13:30:10.054Z,28.50
2019-06-07T13:32:41.351Z,28.50
2019-06-07T13:35:13.604Z,28.50
2019-06-07T13:37:51.007Z,28.50
2019-06-07T13:40:29.364Z,28.50
2019-06-07T13:43:00.614Z,28.50
2019-06-07T13:45:31.977Z,28.50
2019-06-07T13:48:03.378Z,28.50
2019-06-07T13:50:36.079Z,28.50
2019-06-07T13:53:07.743Z,28.50
2019-06-07T13:55:39.095Z,28.40
2019-06-07T13:58:09.979Z,28.50
2019-06-07T14:00:41.098Z,28.40
2019-06-07T14:03:12.076Z,28.40
2019-06-07T14:05:43.052Z,28.40
2019-06-07T14:08:33.212Z,28.40
2019-06-07T14:11:04.188Z,28.40
2019-06-07T14:13:35.111Z,28.40
2019-06-07T14:16:06.376Z,28.40
2019-06-07T14:18:37.418Z,28.40
2019-06-07T14:21:08.375Z,28.50
2019-06-07T14:23:48.809Z,28.50
2019-06-07T14:26:11.432Z,28.50
2019-06-07T14:28:42.470Z,28.50
2019-06-07T14:33:53.267Z,28.40
2019-06-07T14:36:24.813Z,28.40
2019-06-07T14:38:55.949Z,28.50
2019-06-07T14:41:27.212Z,28.50
2019-06-07T14:43:58.200Z,28.40
2019-06-07T14:46:30.172Z,28.40
2019-06-07T14:49:04.916Z,28.40
2019-06-07T14:51:35.815Z,28.40
2019-06-07T14:54:13.306Z,28.40
2019-06-07T14:56:44.825Z,28.40
2019-06-07T14:59:16.176Z,28.40
2019-06-07T15:01:46.947Z,28.40
2019-06-07T15:04:17.883Z,28.40
2019-06-07T15:06:48.792Z,28.50
2019-06-07T15:09:20.795Z,28.50
2019-06-07T15:11:52.864Z,28.40
2019-06-07T15:14:23.796Z,28.40
2019-06-07T15:16:54.696Z,28.40
2019-06-07T15:19:26.486Z,28.40
2019-06-07T15:21:57.794Z,28.40
2019-06-07T15:24:32.552Z,28.50
2019-06-07T15:27:01.045Z,28.40
2019-06-07T15:29:31.986Z,28.40
2019-06-07T15:32:02.901Z,28.50
2019-06-07T15:34:34.320Z,28.50
2019-06-07T15:37:05.371Z,28.40
2019-06-07T15:39:36.645Z,28.40
2019-06-07T15:42:07.629Z,28.40
2019-06-07T15:44:39.542Z,28.40
2019-06-07T15:47:10.652Z,28.40
2019-06-07T15:49:41.638Z,28.40
2019-06-07T15:52:12.638Z,28.40
2019-06-07T15:54:43.776Z,28.40
2019-06-07T15:57:14.717Z,28.50
2019-06-07T15:59:46.189Z,28.40
2019-06-07T16:02:17.388Z,28.40
2019-06-07T16:04:48.637Z,28.40
2019-06-07T16:07:20.680Z,28.40
2019-06-07T16:09:51.637Z,28.40
2019-06-07T16:12:23.131Z,28.40
2019-06-07T16:14:55.104Z,28.40
2019-06-07T16:17:26.039Z,28.40
2019-06-07T16:19:56.963Z,28.40
2019-06-07T16:22:27.983Z,28.40
2019-06-07T16:24:58.915Z,28.40
2019-06-07T16:27:29.854Z,28.40
2019-06-07T16:30:08.814Z,28.40
2019-06-07T16:32:33.287Z,28.40
2019-06-07T16:35:04.161Z,28.40
2019-06-07T16:37:36.242Z,28.40
2019-06-07T16:40:12.199Z,28.40
2019-06-07T16:42:42.920Z,28.40
2019-06-07T16:45:14.731Z,28.40
2019-06-07T16:47:47.691Z,28.40
2019-06-07T16:50:18.642Z,28.40
2019-06-07T16:52:49.565Z,28.30
2019-06-07T16:55:21.260Z,28.40
2019-06-07T16:57:52.218Z,28.30
2019-06-07T17:00:25.257Z,28.30
2019-06-07T17:02:56.459Z,28.30
2019-06-07T17:05:27.523Z,28.30
2019-06-07T17:07:58.541Z,28.30
2019-06-07T17:10:29.601Z,28.30
2019-06-07T17:13:00.871Z,28.30
2019-06-07T17:15:52.262Z,28.30
2019-06-07T17:18:23.495Z,28.30
2019-06-07T17:20:54.853Z,28.30
2019-06-07T17:23:26.036Z,28.30
2019-06-07T17:25:56.804Z,28.30
2019-06-07T17:28:27.764Z,28.30
2019-06-07T17:30:59.442Z,28.30
2019-06-07T17:33:33.589Z,28.30
2019-06-07T17:36:04.568Z,28.30
2019-06-07T17:38:55.812Z,28.30
2019-06-07T17:41:27.205Z,28.20
2019-06-07T17:44:00.370Z,28.20
2019-06-07T17:46:30.791Z,28.20
2019-06-07T17:49:02.581Z,28.20
2019-06-07T17:51:33.504Z,28.30
2019-06-07T17:54:04.440Z,28.20
2019-06-07T17:56:35.367Z,28.10
2019-06-07T17:59:07.894Z,28.10
2019-06-07T18:02:10.195Z,28.10
2019-06-07T18:04:22.884Z,28.00
2019-06-07T18:06:55.991Z,28.00
2019-06-07T18:09:27.438Z,27.90
2019-06-07T18:11:58.367Z,27.90
2019-06-07T18:14:29.197Z,27.80
2019-06-07T18:17:00.231Z,27.80
2019-06-07T18:19:31.992Z,27.80
2019-06-07T18:22:03.015Z,27.80
2019-06-07T18:24:34.813Z,27.70
2019-06-07T18:27:12.137Z,27.70
2019-06-07T18:32:35.979Z,27.70
2019-06-07T18:35:08.180Z,27.70
2019-06-07T18:37:40.983Z,27.80
2019-06-07T18:40:12.013Z,27.70
2019-06-07T18:42:43.795Z,27.80
2019-06-07T18:45:15.590Z,27.80
2019-06-07T18:47:47.853Z,27.80
2019-06-07T18:50:22.075Z,27.80
2019-06-07T18:52:53.163Z,27.70
2019-06-07T18:55:24.099Z,27.80
2019-06-07T18:57:56.354Z,27.80
2019-06-07T19:00:27.896Z,27.80
2019-06-07T19:03:02.279Z,27.80
2019-06-07T19:05:33.432Z,27.80
2019-06-07T19:08:05.198Z,27.70
2019-06-07T19:10:37.010Z,27.80
2019-06-07T19:15:57.861Z,27.70
2019-06-07T19:18:28.971Z,27.80
2019-06-07T19:21:20.280Z,27.80
2019-06-07T19:23:52.095Z,27.80
2019-06-07T19:26:23.847Z,27.80
2019-06-07T19:28:54.921Z,27.80
2019-06-07T19:31:31.557Z,27.80
2019-06-07T19:34:23.695Z,27.80
2019-06-07T19:36:55.672Z,27.80
2019-06-07T19:39:27.651Z,27.80
2019-06-07T19:41:58.597Z,27.80
2019-06-07T19:44:30.335Z,27.80
2019-06-07T19:47:02.638Z,27.80
2019-06-07T19:49:34.655Z,27.80
2019-06-07T19:52:06.273Z,27.80
2019-06-07T19:54:38.022Z,27.70
2019-06-07T19:57:08.981Z,27.80
2019-06-07T19:59:40.725Z,27.70
2019-06-07T20:02:11.719Z,27.70
2019-06-07T20:04:43.424Z,27.70
2019-06-07T20:07:15.435Z,27.70
2019-06-07T20:09:47.253Z,27.70
2019-06-07T20:12:19.723Z,27.80
2019-06-07T20:14:53.913Z,27.70
2019-06-07T20:20:13.124Z,27.70
2019-06-07T20:22:44.223Z,27.70
2019-06-07T20:25:16.774Z,27.70
2019-06-07T20:27:47.829Z,27.70
2019-06-07T20:30:19.737Z,27.70
2019-06-07T20:32:50.773Z,27.70
2019-06-07T20:35:23.164Z,27.70
2019-06-07T20:37:54.335Z,27.70
2019-06-07T20:40:25.275Z,27.70
2019-06-07T20:42:57.264Z,27.70
2019-06-07T20:45:33.821Z,27.70
2019-06-07T20:48:01.961Z,27.70
2019-06-07T20:50:33.090Z,27.70
2019-06-07T20:53:05.174Z,27.70
2019-06-07T20:55:36.214Z,27.70
2019-06-07T20:58:07.363Z,27.70
2019-06-07T21:00:38.173Z,27.70
2019-06-07T21:03:09.667Z,27.70
2019-06-07T21:05:41.063Z,27.70
2019-06-07T21:08:13.044Z,27.60
2019-06-07T21:10:44.347Z,27.60
2019-06-07T21:13:15.263Z,27.60
2019-06-07T21:15:49.289Z,27.60
2019-06-07T21:18:20.031Z,27.60
2019-06-07T21:20:50.997Z,27.60
2019-06-07T21:23:21.903Z,27.60
2019-06-07T21:25:53.016Z,27.60
2019-06-07T21:28:23.907Z,27.50
2019-06-07T21:30:54.867Z,27.50
2019-06-07T21:33:25.876Z,27.50
2019-06-07T21:35:57.203Z,27.50
2019-06-07T21:38:28.158Z,27.50
2019-06-07T21:43:47.056Z,27.50
2019-06-07T21:46:20.383Z,27.50
2019-06-07T21:48:50.417Z,27.50
2019-06-07T21:51:21.921Z,27.50
2019-06-07T21:53:52.909Z,27.60
2019-06-07T21:56:23.731Z,27.60
2019-06-07T21:58:54.749Z,27.60
2019-06-07T22:01:26.963Z,27.60
2019-06-07T22:03:57.923Z,27.50
2019-06-07T22:06:29.260Z,27.50
2019-06-07T22:09:00.225Z,27.50
2019-06-07T22:11:31.099Z,27.50
2019-06-07T22:14:02.312Z,27.50
2019-06-07T22:16:33.254Z,27.50
2019-06-07T22:19:04.499Z,27.50
2019-06-07T22:21:35.665Z,27.50
2019-06-07T22:24:06.903Z,27.50
2019-06-07T22:26:37.963Z,27.40
2019-06-07T22:31:48.467Z,27.40
2019-06-07T22:34:39.562Z,27.40
2019-06-07T22:37:11.290Z,27.40
2019-06-07T22:39:42.411Z,27.40
2019-06-07T22:42:13.555Z,27.40
2019-06-07T22:44:44.934Z,27.40
2019-06-07T22:47:16.186Z,27.40
2019-06-07T22:49:47.700Z,27.40
2019-06-07T22:52:18.655Z,27.30
2019-06-07T22:54:49.704Z,27.30
2019-06-07T22:57:22.106Z,27.30
2019-06-07T22:59:53.056Z,27.30
2019-06-07T23:02:44.298Z,27.30
2019-06-07T23:05:15.302Z,27.30
2019-06-07T23:07:47.005Z,27.30
2019-06-07T23:10:19.639Z,27.30
2019-06-07T23:12:50.781Z,27.30
2019-06-07T23:15:21.911Z,27.30
2019-06-07T23:17:52.758Z,27.30
2019-06-07T23:20:24.968Z,27.30
2019-06-07T23:22:55.997Z,27.30
2019-06-07T23:25:26.933Z,27.20
2019-06-07T23:27:58.045Z,27.20
2019-06-07T23:30:29.205Z,27.20
2019-06-07T23:33:00.091Z,27.20
2019-06-07T23:35:31.038Z,27.20
2019-06-07T23:41:36.979Z,27.10
2019-06-07T23:44:07.939Z,27.20
2019-06-07T23:46:38.643Z,27.10
2019-06-07T23:49:09.667Z,27.10
2019-06-07T23:51:40.726Z,27.10
2019-06-07T23:54:11.772Z,27.10
2019-06-07T23:56:42.572Z,27.10
2019-06-07T23:59:14.210Z,27.10
